Time;durP1;ratioP1;P1;durP2;ratioP2;P2;SDS_P1;SDS_P2;PMS_P1;PMS_P2;Temp;Humidity;BMP_temperature;BMP_pressure;BME280_temperature;BME280_humidity;BME280_pressure;Samples;Min_cycle;Max_cycle;Signal;HPM_P1;HPM_P2
2023/10/08 00:02:03;;;;;;;;;;;;;;;16.34;55.01;98570.84;5101989;28;19932;-63
2023/10/08 00:04:51;;;;;;;;;;;;;;;16.36;55.02;98571.34;5103037;28;20403;-60
2023/10/08 00:07:42;;;;;;;;;;;;;;;16.36;55.21;98563.91;5102069;28;19924;-61
2023/10/08 00:10:34;;;;;;;;;;;;;;;16.39;54.50;98570.66;5097043;28;19935;-61
2023/10/08 00:13:22;;;;;;;;;;;;;;;16.41;54.30;98574.69;5105290;28;20034;-62
2023/10/08 00:16:15;;;;;;;;;;;;;;;16.43;54.15;98574.34;5103577;28;19955;-61
2023/10/08 00:19:08;;;;;;;;;;;;;;;16.43;54.07;98566.91;5102336;28;20017;-61
2023/10/08 00:22:04;;;;;;;;;;;;;;;16.45;54.07;98569.31;5104094;28;20010;-61
2023/10/08 00:24:57;;;;;;;;;;;;;;;16.48;53.92;98574.94;5107522;28;20026;-62
2023/10/08 00:27:50;;;;;;;;;;;;;;;16.49;53.46;98575.75;5104550;28;19947;-61
2023/10/08 00:30:39;;;;;;;;;;;;;;;16.49;53.53;98576.53;5096118;28;20388;-61
2023/10/08 00:33:29;;;;;;;;;;;;;;;16.53;53.84;98571.19;5110948;28;19924;-62
2023/10/08 00:36:19;;;;;;;;;;;;;;;16.53;53.95;98571.19;5109424;28;19931;-61
2023/10/08 00:39:13;;;;;;;;;;;;;;;16.55;54.08;98573.59;5111228;28;20487;-61
2023/10/08 00:42:04;;;;;;;;;;;;;;;16.54;54.01;98578.28;5105627;28;20376;-61
2023/10/08 00:44:55;;;;;;;;;;;;;;;16.52;54.08;98564.13;5098053;27;19924;-63
2023/10/08 00:47:43;;;;;;;;;;;;;;;16.52;53.21;98585.25;5127926;27;19923;-62
2023/10/08 00:50:42;;;;;;;;;;;;;;;16.50;53.48;98583.63;5095791;27;20045;-61
2023/10/08 00:53:38;;;;;;;;;;;;;;;16.53;53.44;98581.38;5110059;27;19928;-61
2023/10/08 00:56:44;;;;;;;;;;;;;;;16.53;53.39;98575.91;5111821;27;19924;-62
2023/10/08 00:59:41;;;;;;;;;;;;;;;16.52;53.35;98575.09;5086647;27;19928;-62
2023/10/08 01:02:44;;;;;;;;;;;;;;;16.53;53.25;98571.19;5107816;27;19953;-61
2023/10/08 01:05:46;;;;;;;;;;;;;;;16.53;53.16;98576.69;5113248;27;19938;-61
2023/10/08 01:08:36;;;;;;;;;;;;;;;16.54;53.21;98572.81;5109560;27;20609;-61
2023/10/08 01:11:33;;;;;;;;;;;;;;;16.53;53.17;98568.47;5115294;27;20297;-60
2023/10/08 01:14:31;;;;;;;;;;;;;;;16.55;53.25;98557.94;5106307;27;19924;-61
2023/10/08 01:17:23;;;;;;;;;;;;;;;16.56;53.06;98562.28;5089251;28;20064;-61
2023/10/08 01:20:21;;;;;;;;;;;;;;;16.57;53.10;98563.91;5100542;27;20003;-61
2023/10/08 01:23:13;;;;;;;;;;;;;;;16.55;53.05;98566.19;5111836;27;19975;-61
2023/10/08 01:26:10;;;;;;;;;;;;;;;16.58;53.22;98562.78;5111431;27;19923;-62
2023/10/08 01:29:02;;;;;;;;;;;;;;;16.58;53.15;98568.25;5122542;27;19924;-60
2023/10/08 01:31:53;;;;;;;;;;;;;;;16.58;53.14;98573.75;5095292;27;19931;-61
2023/10/08 01:34:45;;;;;;;;;;;;;;;16.57;53.16;98563.13;5108913;27;20009;-61
2023/10/08 01:37:34;;;;;;;;;;;;;;;16.56;53.31;98576.00;5116309;27;20362;-61
2023/10/08 01:40:23;;;;;;;;;;;;;;;16.57;53.24;98565.88;5094119;27;19939;-61
2023/10/08 01:43:13;;;;;;;;;;;;;;;16.59;53.30;98574.56;5114349;27;19957;-62
2023/10/08 01:46:04;;;;;;;;;;;;;;;16.56;53.54;98570.53;5099057;27;19935;-62
2023/10/08 01:48:56;;;;;;;;;;;;;;;16.56;53.64;98565.03;5106744;28;19924;-61
2023/10/08 01:51:48;;;;;;;;;;;;;;;16.55;53.79;98562.63;5107014;28;19924;-62
2023/10/08 01:54:37;;;;;;;;;;;;;;;16.55;54.12;98568.91;5087264;28;20521;-61
2023/10/08 01:57:26;;;;;;;;;;;;;;;16.54;53.99;98556.34;5106549;28;20001;-62
2023/10/08 02:00:18;;;;;;;;;;;;;;;16.53;54.19;98560.22;5087857;28;19927;-61
2023/10/08 02:03:09;;;;;;;;;;;;;;;16.52;54.48;98568.81;5110003;28;19924;-61
2023/10/08 02:05:59;;;;;;;;;;;;;;;16.52;54.57;98568.81;5103586;28;19932;-62
2023/10/08 02:08:47;;;;;;;;;;;;;;;16.49;54.35;98573.00;5105519;28;20022;-61
2023/10/08 02:11:43;;;;;;;;;;;;;;;16.49;54.51;98559.28;5106756;28;19927;-61
2023/10/08 02:14:35;;;;;;;;;;;;;;;16.47;54.49;98550.59;5103014;28;19964;-61
2023/10/08 02:17:23;;;;;;;;;;;;;;;16.48;54.37;98557.69;5088002;28;19924;-61
2023/10/08 02:20:12;;;;;;;;;;;;;;;16.49;54.49;98559.28;5106150;28;19924;-61
2023/10/08 02:23:05;;;;;;;;;;;;;;;16.50;54.71;98561.69;5097932;28;20409;-63
2023/10/08 02:25:54;;;;;;;;;;;;;;;16.49;54.80;98570.25;5106538;28;19923;-63
2023/10/08 02:28:42;;;;;;;;;;;;;;;16.47;54.65;98562.38;5108756;28;21123;-62
2023/10/08 02:31:32;;;;;;;;;;;;;;;16.46;54.83;98569.00;5095714;28;19935;-60
2023/10/08 02:34:21;;;;;;;;;;;;;;;16.45;54.90;98575.59;5101570;28;19936;-61
2023/10/08 02:37:10;;;;;;;;;;;;;;;16.47;55.25;98567.06;5103971;28;19927;-60
2023/10/08 02:39:59;;;;;;;;;;;;;;;16.45;55.22;98575.59;5093674;28;19927;-61
2023/10/08 02:42:49;;;;;;;;;;;;;;;16.47;55.09;98578.03;5101891;28;19927;-61
2023/10/08 02:45:39;;;;;;;;;;;;;;;16.47;55.26;98572.53;5094369;28;19923;-61
2023/10/08 02:48:29;;;;;;;;;;;;;;;16.47;55.35;98572.53;5106864;27;19931;-61
2023/10/08 02:51:17;;;;;;;;;;;;;;;16.48;55.61;98579.63;5107668;28;19924;-62
2023/10/08 02:54:06;;;;;;;;;;;;;;;16.46;55.64;98577.22;5108347;28;19957;-61
2023/10/08 03:01:20;;;;;;;;;;;;;;;16.47;56.05;98599.97;5101653;28;19924;-62
2023/10/08 03:04:58;;;;;;;;;;;;;;;16.47;56.14;98594.50;5063601;28;20001;-61
2023/10/08 03:07:51;;;;;;;;;;;;;;;16.48;56.28;98582.38;5056120;28;19931;-61
2023/10/08 03:10:41;;;;;;;;;;;;;;;16.47;56.47;98584.31;5082038;28;20275;-61
2023/10/08 03:13:30;;;;;;;;;;;;;;;16.46;56.58;98593.69;5085167;28;19924;-61
2023/10/08 03:16:27;;;;;;;;;;;;;;;16.46;56.76;98596.44;5072208;28;19924;-60
2023/10/08 03:19:15;;;;;;;;;;;;;;;16.47;56.76;98602.72;5065567;28;19940;-61
2023/10/08 03:22:04;;;;;;;;;;;;;;;16.47;56.68;98609.00;5069194;28;19986;-61
2023/10/08 03:24:56;;;;;;;;;;;;;;;16.48;56.90;98618.03;5081108;28;19925;-61
2023/10/08 03:27:44;;;;;;;;;;;;;;;16.49;56.91;98622.38;5069679;28;20015;-62
2023/10/08 03:30:37;;;;;;;;;;;;;;;16.50;57.05;98629.47;5065420;28;20394;-61
2023/10/08 03:33:26;;;;;;;;;;;;;;;16.50;57.09;98632.19;5092012;28;20007;-61
2023/10/08 03:36:20;;;;;;;;;;;;;;;16.51;57.03;98639.28;5059400;28;19931;-61
2023/10/08 03:39:13;;;;;;;;;;;;;;;16.50;57.19;98622.03;5087728;28;19929;-61
2023/10/08 03:42:07;;;;;;;;;;;;;;;16.52;57.18;98623.66;5065408;28;19932;-61
2023/10/08 03:44:56;;;;;;;;;;;;;;;16.52;57.25;98618.97;5058781;28;19999;-61
2023/10/08 03:47:46;;;;;;;;;;;;;;;16.52;57.33;98618.19;5069022;28;19932;-61
2023/10/08 03:50:41;;;;;;;;;;;;;;;16.50;57.41;98621.22;5064215;28;19925;-60
2023/10/08 03:53:33;;;;;;;;;;;;;;;16.50;57.42;98621.22;5065727;28;19925;-61
2023/10/08 03:56:24;;;;;;;;;;;;;;;16.49;57.43;98627.84;5060516;28;20437;-61
2023/10/08 03:59:14;;;;;;;;;;;;;;;16.49;57.53;98628.66;5067810;28;19924;-61
2023/10/08 04:02:13;;;;;;;;;;;;;;;16.49;57.66;98627.84;5066120;28;19928;-61
2023/10/08 04:05:17;;;;;;;;;;;;;;;16.49;57.65;98628.66;5064782;28;19935;-62
2023/10/08 04:08:16;;;;;;;;;;;;;;;16.50;57.64;98633.00;5062992;28;20049;-61
2023/10/08 04:11:28;;;;;;;;;;;;;;;16.48;57.72;98634.47;5067841;28;19932;-61
2023/10/08 04:14:17;;;;;;;;;;;;;;;16.46;58.03;98643.06;5065344;28;19933;-61
2023/10/08 04:17:08;;;;;;;;;;;;;;;16.46;57.90;98647.75;5065251;28;19998;-62
2023/10/08 04:19:58;;;;;;;;;;;;;;;16.44;58.13;98636.28;5052042;28;20021;-61
2023/10/08 04:22:46;;;;;;;;;;;;;;;16.44;58.07;98642.56;5063248;28;19939;-61
2023/10/08 04:25:33;;;;;;;;;;;;;;;16.44;58.08;98650.00;5058585;28;19929;-62
2023/10/08 04:28:22;;;;;;;;;;;;;;;16.43;58.15;98659.34;5066838;28;19936;-62
2023/10/08 04:31:24;;;;;;;;;;;;;;;16.40;58.42;98655.31;5065890;28;20443;-62
2023/10/08 04:34:16;;;;;;;;;;;;;;;16.41;58.51;98661.63;5056817;28;20485;-62
2023/10/08 04:37:12;;;;;;;;;;;;;;;16.40;58.54;98644.34;5066880;28;19932;-61
2023/10/08 04:40:01;;;;;;;;;;;;;;;16.42;58.50;98653.06;5066351;28;19968;-62
2023/10/08 04:42:49;;;;;;;;;;;;;;;16.40;58.71;98651.78;5076082;28;19928;-63
2023/10/08 04:45:37;;;;;;;;;;;;;;;16.41;58.62;98646.00;5062241;28;20029;-62
2023/10/08 04:48:31;;;;;;;;;;;;;;;16.41;58.62;98648.72;5062069;28;19925;-62
2023/10/08 04:51:22;;;;;;;;;;;;;;;16.41;58.67;98645.19;5060103;28;20024;-62
2023/10/08 04:54:16;;;;;;;;;;;;;;;16.40;58.96;98651.78;5057977;28;19928;-62
2023/10/08 04:57:06;;;;;;;;;;;;;;;16.37;58.78;98638.75;5062839;28;19935;-63
2023/10/08 04:59:57;;;;;;;;;;;;;;;16.36;59.29;98653.59;5051770;28;19929;-62
2023/10/08 05:02:50;;;;;;;;;;;;;;;16.35;59.13;98649.22;5067141;28;20379;-62
2023/10/08 05:05:55;;;;;;;;;;;;;;;16.38;59.09;98643.09;5094050;28;19930;-62
2023/10/08 05:08:57;;;;;;;;;;;;;;;16.34;59.36;98634.72;5107950;27;19946;-61
2023/10/08 05:11:46;;;;;;;;;;;;;;;16.33;59.36;98633.13;5104306;27;19982;-62
2023/10/08 05:14:38;;;;;;;;;;;;;;;16.33;59.57;98635.84;5108549;28;19924;-61
2023/10/08 05:17:34;;;;;;;;;;;;;;;16.32;59.66;98638.94;5103809;27;20020;-61
2023/10/08 05:20:40;;;;;;;;;;;;;;;16.32;59.71;98627.97;5105735;27;19931;-64
2023/10/08 05:23:53;;;;;;;;;;;;;;;16.30;59.85;98616.50;5097163;27;19974;-61
2023/10/08 05:26:49;;;;;;;;;;;;;;;16.30;59.86;98622.00;5102517;27;20072;-62
2023/10/08 05:33:23;;;;;;;;;;;;;;;16.24;60.19;98608.50;5105687;28;19923;-61
2023/10/08 05:36:18;;;;;;;;;;;;;;;16.25;60.33;98609.31;5107234;27;20390;-62
2023/10/08 05:39:29;;;;;;;;;;;;;;;16.21;60.22;98608.34;5103890;28;20044;-61
2023/10/08 05:42:20;;;;;;;;;;;;;;;16.21;60.30;98600.94;5110028;28;19931;-61
2023/10/08 05:45:28;;;;;;;;;;;;;;;16.24;60.21;98614.00;5096377;27;19924;-61
2023/10/08 05:48:27;;;;;;;;;;;;;;;16.24;60.47;98600.28;5105205;28;19924;-61
2023/10/08 05:51:33;;;;;;;;;;;;;;;16.25;60.39;98592.84;5109964;28;19924;-61
2023/10/08 05:54:35;;;;;;;;;;;;;;;16.27;60.57;98598.81;5107057;28;20491;-61
2023/10/08 05:57:38;;;;;;;;;;;;;;;16.29;60.58;98593.78;5104439;27;20061;-61
2023/10/08 06:03:46;;;;;;;;;;;;;;;16.27;60.22;98587.84;5097908;27;19932;-61
2023/10/08 06:06:37;;;;;;;;;;;;;;;16.26;60.27;98583.50;5104853;28;19931;-61
2023/10/08 06:09:35;;;;;;;;;;;;;;;16.26;60.40;98593.66;5110052;27;19923;-61
2023/10/08 06:12:30;;;;;;;;;;;;;;;16.26;60.44;98616.38;5103709;27;19954;-61
2023/10/08 06:15:36;;;;;;;;;;;;;;;16.20;60.60;98612.25;5100748;27;19924;-61
2023/10/08 06:18:25;;;;;;;;;;;;;;;16.18;60.63;98618.03;5105294;27;20054;-62
2023/10/08 06:21:15;;;;;;;;;;;;;;;16.18;60.61;98626.25;5093665;28;20381;-61
2023/10/08 06:24:08;;;;;;;;;;;;;;;16.15;60.75;98626.94;5100999;27;20009;-61
2023/10/08 06:27:04;;;;;;;;;;;;;;;16.16;60.74;98620.31;5105541;27;19924;-62
2023/10/08 06:29:55;;;;;;;;;;;;;;;16.20;60.68;98634.16;5107071;27;19934;-61
2023/10/08 06:32:44;;;;;;;;;;;;;;;16.21;60.77;98636.56;5104604;27;19928;-61
2023/10/08 06:35:33;;;;;;;;;;;;;;;16.23;60.76;98638.97;5109295;27;19931;-61
2023/10/08 06:38:21;;;;;;;;;;;;;;;16.24;60.65;98641.41;5108059;27;19930;-61
2023/10/08 06:41:15;;;;;;;;;;;;;;;16.26;60.77;98651.22;5106608;27;20262;-61
2023/10/08 06:44:15;;;;;;;;;;;;;;;16.26;60.91;98648.50;5108809;27;19924;-62
2023/10/08 06:47:09;;;;;;;;;;;;;;;16.23;61.00;98653.47;5104474;27;19931;-62
2023/10/08 06:49:58;;;;;;;;;;;;;;;16.20;61.14;98654.16;5106657;28;19930;-62
2023/10/08 06:52:46;;;;;;;;;;;;;;;16.22;61.16;98648.34;5106541;28;19924;-62
2023/10/08 06:55:35;;;;;;;;;;;;;;;16.22;61.30;98648.34;5107869;27;19927;-61
2023/10/08 06:58:24;;;;;;;;;;;;;;;16.19;61.09;98646.25;5103483;27;19933;-62
2023/10/08 07:01:13;;;;;;;;;;;;;;;16.15;61.44;98648.88;5103980;28;20614;-62
2023/10/08 07:04:04;;;;;;;;;;;;;;;16.16;61.47;98650.47;5094404;28;19939;-61
2023/10/08 07:06:53;;;;;;;;;;;;;;;16.18;61.55;98653.66;5107872;28;20003;-63
2023/10/08 07:09:43;;;;;;;;;;;;;;;16.20;61.59;98672.56;5098275;28;19927;-62
2023/10/08 07:12:35;;;;;;;;;;;;;;;16.21;61.69;98674.94;5104480;27;21399;-62
2023/10/08 07:15:26;;;;;;;;;;;;;;;16.25;61.54;98664.13;5111034;27;20018;-62
2023/10/08 07:18:22;;;;;;;;;;;;;;;16.28;61.59;98673.63;5104569;27;19932;-63
2023/10/08 07:21:12;;;;;;;;;;;;;;;16.30;61.69;98669.44;5100458;28;19954;-62
2023/10/08 07:24:00;;;;;;;;;;;;;;;16.31;61.61;98672.97;5107609;28;19923;-62
2023/10/08 07:26:49;;;;;;;;;;;;;;;16.32;61.90;98680.88;5099639;28;20032;-62
2023/10/08 07:29:37;;;;;;;;;;;;;;;16.34;61.61;98689.56;5104939;28;20297;-63
2023/10/08 07:32:26;;;;;;;;;;;;;;;16.38;61.66;98698.75;5107368;28;20384;-63
2023/10/08 07:35:24;;;;;;;;;;;;;;;16.40;61.73;98714.84;5089184;28;19935;-62
2023/10/08 07:38:12;;;;;;;;;;;;;;;16.41;61.64;98721.97;5103695;28;19932;-62
2023/10/08 07:41:01;;;;;;;;;;;;;;;16.41;61.56;98732.94;5101830;28;19924;-62
2023/10/08 07:43:55;;;;;;;;;;;;;;;16.43;61.74;98738.91;5108273;27;19924;-62
2023/10/08 07:46:44;;;;;;;;;;;;;;;16.44;61.63;98724.84;5104449;27;19924;-62
2023/10/08 07:49:32;;;;;;;;;;;;;;;16.47;61.80;98728.88;5106395;27;19924;-62
2023/10/08 07:52:23;;;;;;;;;;;;;;;16.53;61.65;98722.06;5100212;28;19934;-62
2023/10/08 07:55:17;;;;;;;;;;;;;;;16.58;61.76;98727.38;5102873;28;19931;-62
2023/10/08 07:58:06;;;;;;;;;;;;;;;16.59;61.54;98726.22;5092243;28;20396;-62
2023/10/08 08:00:55;;;;;;;;;;;;;;;16.62;61.75;98738.47;5100190;28;20006;-62
2023/10/08 08:03:45;;;;;;;;;;;;;;;16.64;61.58;98756.22;5093289;28;19943;-64
2023/10/08 08:06:33;;;;;;;;;;;;;;;16.66;61.32;98756.69;5104009;28;19933;-63
2023/10/08 08:09:23;;;;;;;;;;;;;;;16.62;61.38;98766.72;5104739;28;20046;-66
2023/10/08 08:12:11;;;;;;;;;;;;;;;16.70;61.38;98782.31;5084910;28;19973;-63
2023/10/08 08:15:00;;;;;;;;;;;;;;;16.71;61.29;98772.19;5107173;28;20054;-63
2023/10/08 08:17:48;;;;;;;;;;;;;;;16.74;61.40;98782.50;5106074;28;19927;-63
2023/10/08 08:20:38;;;;;;;;;;;;;;;16.75;61.31;98776.69;5102150;28;21268;-63
2023/10/08 08:23:27;;;;;;;;;;;;;;;16.79;61.52;98762.31;5102838;28;19928;-63
2023/10/08 08:26:27;;;;;;;;;;;;;;;16.84;61.49;98775.84;5098204;28;19939;-63
2023/10/08 08:29:15;;;;;;;;;;;;;;;16.85;61.62;98769.22;5106655;28;20334;-63
2023/10/08 08:32:04;;;;;;;;;;;;;;;16.88;61.90;98765.78;5108863;28;19931;-63
2023/10/08 08:34:52;;;;;;;;;;;;;;;16.93;61.79;98757.38;5108130;28;19927;-63
2023/10/08 08:37:40;;;;;;;;;;;;;;;17.02;61.37;98760.88;5108968;27;20332;-62
2023/10/08 08:40:28;;;;;;;;;;;;;;;17.07;61.36;98755.19;5109284;27;20361;-63
2023/10/08 08:43:18;;;;;;;;;;;;;;;17.09;61.31;98747.41;5102315;27;19977;-63
2023/10/08 08:46:06;;;;;;;;;;;;;;;17.13;60.90;98740.13;5109139;28;19934;-63
2023/10/08 08:48:55;;;;;;;;;;;;;;;17.17;61.13;98732.84;5108147;28;20289;-63
2023/10/08 08:51:47;;;;;;;;;;;;;;;17.21;61.09;98727.47;5106076;28;19934;-64
2023/10/08 08:54:36;;;;;;;;;;;;;;;17.23;60.74;98723.25;5113140;27;19951;-63
2023/10/08 08:57:24;;;;;;;;;;;;;;;17.24;60.75;98730.34;5102661;28;19927;-63
2023/10/08 09:00:14;;;;;;;;;;;;;;;17.24;60.73;98721.31;5100901;27;19939;-63
2023/10/08 09:03:05;;;;;;;;;;;;;;;17.23;60.81;98698.53;5100896;28;19935;-62
2023/10/08 09:05:53;;;;;;;;;;;;;;;17.22;60.70;98713.41;5102198;28;19944;-63
2023/10/08 09:08:42;;;;;;;;;;;;;;;17.22;60.85;98696.94;5104604;28;19931;-63
2023/10/08 09:11:30;;;;;;;;;;;;;;;17.22;60.92;98705.16;5108952;27;20540;-63
2023/10/08 09:14:20;;;;;;;;;;;;;;;17.21;61.08;98720.03;5103852;28;19932;-64
2023/10/08 09:17:10;;;;;;;;;;;;;;;17.20;61.25;98729.41;5105500;28;19935;-63
2023/10/08 09:19:59;;;;;;;;;;;;;;;17.20;60.87;98731.34;5104680;28;19931;-63
2023/10/08 09:22:48;;;;;;;;;;;;;;;17.19;60.94;98733.28;5101328;28;19928;-63
2023/10/08 09:25:36;;;;;;;;;;;;;;;17.20;61.24;98742.31;5103690;28;19935;-62
2023/10/08 09:28:25;;;;;;;;;;;;;;;17.18;61.09;98759.16;5105062;28;19939;-62
2023/10/08 09:31:13;;;;;;;;;;;;;;;17.18;61.25;98766.59;5103219;28;19924;-62
2023/10/08 09:34:02;;;;;;;;;;;;;;;17.19;61.30;98779.97;5112466;27;19934;-62
2023/10/08 09:36:51;;;;;;;;;;;;;;;17.20;61.47;98786.25;5114269;27;19931;-63
2023/10/08 09:39:39;;;;;;;;;;;;;;;17.22;61.44;98779.31;5111882;27;19975;-63
2023/10/08 09:42:29;;;;;;;;;;;;;;;17.25;61.61;98773.13;5109147;27;19981;-64
2023/10/08 09:45:17;;;;;;;;;;;;;;;17.29;61.83;98795.25;5101642;27;20393;-64
2023/10/08 09:48:06;;;;;;;;;;;;;;;17.33;61.83;98785.22;5098127;27;19928;-64
2023/10/08 09:50:56;;;;;;;;;;;;;;;17.36;61.81;98784.53;5107166;27;19928;-64
2023/10/08 09:53:44;;;;;;;;;;;;;;;17.38;61.82;98781.47;5102118;28;19934;-64
2023/10/08 09:56:34;;;;;;;;;;;;;;;17.41;61.87;98791.78;5105625;28;20003;-64
2023/10/08 09:59:22;;;;;;;;;;;;;;;17.42;61.53;98796.94;5106766;28;19928;-63
2023/10/08 10:02:14;;;;;;;;;;;;;;;17.43;61.50;98800.50;5101334;28;20467;-64
2023/10/08 10:05:02;;;;;;;;;;;;;;;17.45;61.42;98807.25;5068525;28;19924;-64
2023/10/08 10:07:52;;;;;;;;;;;;;;;17.47;61.41;98806.91;5064287;28;19932;-64
2023/10/08 10:10:47;;;;;;;;;;;;;;;17.46;61.31;98799.81;5061461;28;20050;-63
2023/10/08 10:13:35;;;;;;;;;;;;;;;17.46;61.45;98811.59;5069889;28;19947;-64
2023/10/08 10:16:24;;;;;;;;;;;;;;;17.52;61.64;98820.44;5061376;28;19931;-64
2023/10/08 10:19:17;;;;;;;;;;;;;;;17.52;61.51;98806.72;5069769;28;19924;-64
2023/10/08 10:22:05;;;;;;;;;;;;;;;17.57;61.60;98797.47;5067031;28;19924;-64
2023/10/08 10:24:54;;;;;;;;;;;;;;;17.58;61.29;98802.66;5066337;28;19925;-63
2023/10/08 10:27:43;;;;;;;;;;;;;;;17.59;61.33;98804.25;5060773;28;19925;-64
2023/10/08 10:30:32;;;;;;;;;;;;;;;17.62;61.72;98813.75;5073168;28;20444;-64
2023/10/08 10:33:20;;;;;;;;;;;;;;;17.63;61.37;98807.94;5066649;28;19925;-64
2023/10/08 10:36:08;;;;;;;;;;;;;;;17.65;61.13;98802.09;5068357;28;19932;-64
2023/10/08 10:39:15;;;;;;;;;;;;;;;17.65;61.27;98791.91;5065389;28;20011;-64
2023/10/08 10:42:06;;;;;;;;;;;;;;;17.64;61.42;98798.56;5069503;28;19932;-64
2023/10/08 10:44:55;;;;;;;;;;;;;;;17.63;61.60;98801.59;5067831;28;19955;-64
2023/10/08 10:47:46;;;;;;;;;;;;;;;17.63;61.71;98796.13;5064720;28;19931;-64
2023/10/08 10:50:47;;;;;;;;;;;;;;;17.61;61.36;98782.72;5054294;28;19925;-64
2023/10/08 10:53:44;;;;;;;;;;;;;;;17.58;61.53;98786.16;5063367;28;19932;-64
2023/10/08 10:56:39;;;;;;;;;;;;;;;17.58;61.78;98802.66;5063629;28;19951;-64
2023/10/08 10:59:29;;;;;;;;;;;;;;;17.54;61.50;98813.50;5061991;28;20017;-64
2023/10/08 11:02:30;;;;;;;;;;;;;;;17.51;61.75;98814.16;5065276;28;19928;-64
2023/10/08 11:05:19;;;;;;;;;;;;;;;17.50;62.59;98811.75;5058117;28;19979;-64
2023/10/08 11:08:08;;;;;;;;;;;;;;;17.49;62.63;98818.38;5065570;28;19924;-64
2023/10/08 11:10:58;;;;;;;;;;;;;;;17.49;62.59;98823.88;5064842;28;19934;-64
2023/10/08 11:13:54;;;;;;;;;;;;;;;17.50;62.77;98836.47;5064950;28;20322;-64
2023/10/08 11:16:44;;;;;;;;;;;;;;;17.50;62.25;98828.22;5061511;28;19978;-65
2023/10/08 11:19:32;;;;;;;;;;;;;;;17.48;62.19;98830.50;5060636;28;20337;-64
2023/10/08 11:22:22;;;;;;;;;;;;;;;17.49;62.18;98810.16;5067139;28;19932;-64
2023/10/08 11:25:22;;;;;;;;;;;;;;;17.52;62.13;98781.97;5069081;28;19925;-64
2023/10/08 11:28:12;;;;;;;;;;;;;;;17.53;61.96;98789.91;5068355;28;19924;-64
2023/10/08 11:31:07;;;;;;;;;;;;;;;17.54;61.87;98794.25;5069925;28;19932;-65
2023/10/08 11:34:00;;;;;;;;;;;;;;;17.57;62.11;98798.25;5062472;28;19924;-65
2023/10/08 11:36:55;;;;;;;;;;;;;;;17.60;61.91;98797.59;5068795;28;19928;-64
2023/10/08 11:39:45;;;;;;;;;;;;;;;17.64;61.96;98811.50;5055820;28;19925;-64
2023/10/08 11:42:44;;;;;;;;;;;;;;;17.68;61.98;98813.19;5065454;28;20267;-65
2023/10/08 11:45:38;;;;;;;;;;;;;;;17.69;61.81;98825.03;5066772;28;19931;-64
2023/10/08 11:48:28;;;;;;;;;;;;;;;17.72;61.73;98830.66;5067359;28;19924;-71
2023/10/08 11:51:17;;;;;;;;;;;;;;;17.76;61.84;98841.81;5068309;28;19931;-64
2023/10/08 11:54:06;;;;;;;;;;;;;;;17.79;61.76;98855.69;5070461;28;20042;-65
2023/10/08 11:56:56;;;;;;;;;;;;;;;17.84;61.48;98848.34;5058395;28;19924;-64
2023/10/08 11:59:46;;;;;;;;;;;;;;;17.87;61.28;98853.19;5063681;28;19935;-65
2023/10/08 12:02:35;;;;;;;;;;;;;;;17.87;61.20;98847.69;5067819;28;20014;-65
2023/10/08 12:05:24;;;;;;;;;;;;;;;17.87;61.25;98847.69;5103643;28;19932;-64
2023/10/08 12:08:14;;;;;;;;;;;;;;;17.86;61.53;98841.41;5099208;28;20381;-65
2023/10/08 12:11:02;;;;;;;;;;;;;;;17.85;61.38;98836.25;5113274;28;19972;-64
2023/10/08 12:13:50;;;;;;;;;;;;;;;17.84;61.18;98842.84;5103176;27;19932;-64
2023/10/08 12:16:39;;;;;;;;;;;;;;;17.83;61.44;98833.00;5109981;28;20265;-64
2023/10/08 12:19:32;;;;;;;;;;;;;;;17.83;61.50;98830.25;5113420;28;19928;-64
2023/10/08 12:22:20;;;;;;;;;;;;;;;17.84;61.48;98821.66;5111837;28;20027;-64
2023/10/08 12:25:09;;;;;;;;;;;;;;;17.87;61.73;98811.97;5107090;28;19931;-64
2023/10/08 12:27:57;;;;;;;;;;;;;;;17.86;61.74;98802.09;5114434;28;19924;-64
2023/10/08 12:30:49;;;;;;;;;;;;;;;17.85;61.84;98809.56;5112611;28;19924;-64
2023/10/08 12:33:37;;;;;;;;;;;;;;;17.85;61.92;98812.31;5114014;28;19931;-64
2023/10/08 12:36:26;;;;;;;;;;;;;;;17.87;62.21;98820.22;5108082;28;19930;-65
2023/10/08 12:39:15;;;;;;;;;;;;;;;17.88;62.43;98822.59;5110092;28;20381;-64
2023/10/08 12:42:06;;;;;;;;;;;;;;;17.88;62.49;98830.84;5108441;28;19924;-65
2023/10/08 12:44:57;;;;;;;;;;;;;;;17.90;62.74;98833.28;5111083;28;19924;-64
2023/10/08 12:47:46;;;;;;;;;;;;;;;17.90;62.73;98830.53;5103404;28;20656;-64
2023/10/08 12:50:42;;;;;;;;;;;;;;;17.86;62.63;98840.59;5111932;28;19924;-64
2023/10/08 12:53:34;;;;;;;;;;;;;;;17.86;62.55;98846.09;5108013;28;19932;-64
2023/10/08 12:56:31;;;;;;;;;;;;;;;17.85;62.96;98836.25;5095168;28;19972;-64
2023/10/08 12:59:21;;;;;;;;;;;;;;;17.83;63.14;98844.00;5107104;28;19934;-64
2023/10/08 13:02:10;;;;;;;;;;;;;;;17.84;63.09;98842.84;5102181;27;19967;-64
2023/10/08 13:04:59;;;;;;;;;;;;;;;17.82;63.15;98834.97;5076740;28;19924;-64
2023/10/08 13:07:47;;;;;;;;;;;;;;;17.80;63.12;98838.03;5075883;28;19931;-64
2023/10/08 13:10:35;;;;;;;;;;;;;;;17.78;63.26;98823.81;5072767;28;20129;-64
2023/10/08 13:13:25;;;;;;;;;;;;;;;17.78;63.24;98826.56;5067817;28;19924;-64
2023/10/08 13:16:15;;;;;;;;;;;;;;;17.79;63.16;98822.69;5072128;28;19924;-64
2023/10/08 13:19:03;;;;;;;;;;;;;;;17.79;63.33;98838.41;5075046;28;20010;-64
2023/10/08 13:21:52;;;;;;;;;;;;;;;17.78;63.47;98840.31;5071930;28;19924;-64
2023/10/08 13:24:41;;;;;;;;;;;;;;;17.79;63.50;98835.66;5067576;28;20019;-64
2023/10/08 13:27:30;;;;;;;;;;;;;;;17.84;63.54;98834.59;5057211;28;19929;-64
2023/10/08 13:30:18;;;;;;;;;;;;;;;17.82;63.38;98832.22;5063955;28;19936;-64
2023/10/08 13:33:09;;;;;;;;;;;;;;;17.82;63.44;98834.97;5060338;28;20452;-65
2023/10/08 13:35:57;;;;;;;;;;;;;;;17.80;63.57;98827.06;5080641;28;19990;-64
2023/10/08 13:39:02;;;;;;;;;;;;;;;17.82;63.52;98826.72;5069716;28;19924;-64
2023/10/08 13:41:52;;;;;;;;;;;;;;;17.74;63.44;98822.91;5070974;28;19935;-64
2023/10/08 13:44:43;;;;;;;;;;;;;;;17.81;63.51;98833.34;5066114;28;19936;-64
2023/10/08 13:47:33;;;;;;;;;;;;;;;17.78;63.27;98820.28;5069359;28;19936;-64
2023/10/08 13:50:23;;;;;;;;;;;;;;;17.80;63.48;98818.00;5071758;28;19924;-64
2023/10/08 13:53:13;;;;;;;;;;;;;;;17.80;63.36;98821.56;5066876;28;20637;-64
2023/10/08 13:56:04;;;;;;;;;;;;;;;17.80;63.16;98821.56;5063432;28;19935;-64
2023/10/08 13:58:56;;;;;;;;;;;;;;;17.84;63.36;98809.88;5065606;28;19931;-64
2023/10/08 14:01:47;;;;;;;;;;;;;;;17.88;63.57;98816.31;5069117;28;19928;-64
2023/10/08 14:04:39;;;;;;;;;;;;;;;17.89;63.48;98807.72;5101217;28;19940;-64
2023/10/08 14:07:30;;;;;;;;;;;;;;;17.91;63.18;98816.44;5104061;28;20337;-64
2023/10/08 14:10:19;;;;;;;;;;;;;;;17.90;63.28;98809.34;5106697;28;19976;-64
2023/10/08 14:13:07;;;;;;;;;;;;;;;17.88;63.09;98819.88;5104980;28;19927;-64
2023/10/08 14:15:56;;;;;;;;;;;;;;;17.89;63.16;98820.66;5105377;28;19931;-64
2023/10/08 14:18:50;;;;;;;;;;;;;;;17.90;62.97;98822.28;5102872;28;19931;-64
2023/10/08 14:21:49;;;;;;;;;;;;;;;17.89;63.30;98828.91;5106791;28;19928;-64
2023/10/08 14:24:39;;;;;;;;;;;;;;;17.89;63.35;98824.22;5105074;28;20392;-64
2023/10/08 14:27:31;;;;;;;;;;;;;;;17.87;63.00;98829.25;5092402;28;20381;-64
2023/10/08 14:30:23;;;;;;;;;;;;;;;17.87;63.40;98825.69;5100594;28;19931;-65
2023/10/08 14:33:23;;;;;;;;;;;;;;;17.89;63.51;98817.91;5108397;28;20612;-64
2023/10/08 14:45:31;;;;;;;;;;;;;;;17.84;63.84;98823.63;5101398;28;20534;-65
2023/10/08 14:48:19;;;;;;;;;;;;;;;17.81;63.71;98816.88;5108018;28;19924;-64
2023/10/08 14:51:07;;;;;;;;;;;;;;;17.79;63.77;98817.22;5106358;28;19924;-64
2023/10/08 14:53:55;;;;;;;;;;;;;;;17.78;63.81;98812.81;5108002;28;19923;-64
2023/10/08 14:56:44;;;;;;;;;;;;;;;17.78;64.59;98818.31;5106268;28;20010;-64
2023/10/08 14:59:33;;;;;;;;;;;;;;;17.79;65.11;98814.47;5108479;28;20069;-64
2023/10/08 15:02:22;;;;;;;;;;;;;;;17.79;65.27;98814.47;5108193;28;19971;-64
2023/10/08 15:05:11;;;;;;;;;;;;;;;17.74;65.66;98811.91;5101985;28;19931;-64
2023/10/08 15:07:59;;;;;;;;;;;;;;;17.73;65.52;98809.47;5104111;28;19928;-64
2023/10/08 15:10:50;;;;;;;;;;;;;;;17.72;65.89;98814.19;5098645;28;20084;-64
2023/10/08 15:13:38;;;;;;;;;;;;;;;17.73;65.95;98814.97;5099090;27;19923;-65
2023/10/08 15:16:28;;;;;;;;;;;;;;;17.74;65.80;98816.59;5107973;27;19947;-64